Details From KSAN - San Diego Intl
To LEBG - Burgos
Flight Number -
Tags Generated
Created
Modified
Stats Distance 5,006 nm / 9,271 km
Max Altitude 0 ft / 0 m
Waypoints 9
Social Downloads 0
Likes 0
Share VATSIM

Download

Looking for another format? Having issues loading an existing format? Contact us
Advertisement - Login to hide

Notes

Generated

Route

KSAN 10277 10224 HULIX KD75W SHERA PAWTA BGS LEBG

ID Type Via Altitude Latitude Longitude Leg Dist Tot Dist Heading (true) Name
O KSAN APT - 0 ft / 0 m 32.73712˚ -117.20435˚ - 0 nm - -
10277 FIX - 0 ft / 0 m 35.51343˚ -113.95542˚ 232 nm 232 nm 43° / 45° -
10224 FIX - 0 ft / 0 m 37.75558˚ -111.06969˚ 193 nm 425 nm 45° / 47° -
HULIX FIX - 0 ft / 0 m 40.47158˚ -107.19172˚ 243 nm 669 nm 47° / 49° -
KD75W FIX - 0 ft / 0 m 42.50000˚ -104.00000˚ 188 nm 857 nm 49° / 51° -
SHERA FIX - 0 ft / 0 m 44.79939˚ -99.90244˚ 225 nm 1082 nm 51° / 54° -
PAWTA FIX - 0 ft / 0 m 47.09778˚ -95.05556˚ 244 nm 1327 nm 54° / 57° -
BGS NDB - 0 ft / 0 m 42.35813˚ -3.63538˚ 3678 nm 5005 nm 57° / 129° BURGOS NDB
O LEBG APT - 0 ft / 0 m 42.35425˚ -3.62749˚ 0 nm 5006 nm 124° / 124° -

Altitude Profile

Advertisement - Login to hide

Weather


0- 5 10 15 20 25 30 35+ Temperature / ° C

Clouds and Precipitation
Forecast for 2018-05-26 06:00 UTC. Updated an hour ago

Ground ~20,000 ft ~40,000 ft Winds

KSAN

Details ICAO KSAN (SAN)
Name San Diego Intl
Region United States
Timezone America/Los_Angeles (UTC-7.0)
Stats Elevation 17 ft / 5 m (AMSL)
Location 32.733556° -117.189658°
Runways 1
Magnetic Variation 11.487° E

METAR

KSAN 260551Z 30009KT 10SM FEW017 BKN023 BKN035 17/12 A3010 RMK AO2 SLP193 T01670122 10200 20167 51007

Decode

TAF

TAF KSAN 260520Z 2606/2712 31007KT P6SM SCT018 SCT025 TEMPO 2606/2608 BKN023 FM260800 VRB04KT P6SM OVC022 FM261900 28011KT P6SM SCT025 FM270300 30005KT P6SM BKN020

Decode

Departure Runways

ID Width Length Bearing (true) Bearing (mag) Surface Threshold Offset Overrun Length
09 200 ft / 61 m 9,387 ft / 2,861 m 106.07° 94.58° Asphalt 699 ft / 213 m 269 ft / 82 m
27 200 ft / 61 m 9,387 ft / 2,861 m 286.08° 274.59° Asphalt 1,811 ft / 552 m 0 ft / 0 m

LEBG

Details ICAO LEBG (RGS)
Name Burgos
Region Spain
Timezone Europe/Madrid (UTC+2.0)
Stats Elevation 2,961 ft / 903 m (AMSL)
Location 42.356895° -3.614221°
Runways 1
Magnetic Variation 0.732° W

METAR

LEBG 260630Z VRB01KT 0200 R22/1000U R04/0225N FG VV002 09/09 Q1014

Decode

TAF

Not found

Destination Runways

ID Width Length Bearing (true) Bearing (mag) Surface Threshold Offset Overrun Length
04 148 ft / 45 m 6,423 ft / 1,958 m 43.31° 44.04° Asphalt 0 ft / 0 m 0 ft / 0 m
22 148 ft / 45 m 6,423 ft / 1,958 m 223.32° 224.05° Asphalt 0 ft / 0 m 0 ft / 0 m

Popular Alternatives